Time;durP1;ratioP1;P1;durP2;ratioP2;P2;SDS_P1;SDS_P2;PMS_P1;PMS_P2;Temp;Humidity;BMP_temperature;BMP_pressure;BME280_temperature;BME280_humidity;BME280_pressure;Samples;Min_cycle;Max_cycle;Signal;HPM_P1;HPM_P2
2023/02/11 00:09:31;;;;;;;39.85;16.80;;;-2.70;99.90;;;;;;20918919;28;20494;-78
2023/02/11 00:19:32;;;;;;;41.97;15.77;;;-2.70;99.90;;;;;;20918363;22;20081;-82
2023/02/11 00:29:33;;;;;;;34.58;15.15;;;-2.90;99.90;;;;;;20836547;28;20037;-83
2023/02/11 00:39:34;;;;;;;49.47;17.75;;;-3.00;99.90;;;;;;20835590;28;20336;-83
2023/02/11 00:49:39;;;;;;;45.95;18.00;;;-2.90;99.90;;;;;;20835013;28;20029;-81
2023/02/11 00:59:39;;;;;;;55.70;20.85;;;-3.00;99.90;;;;;;20832796;28;20091;-82
2023/02/11 01:09:40;;;;;;;57.28;20.80;;;-3.30;99.90;;;;;;20832120;28;20029;-83
2023/02/11 01:19:41;;;;;;;46.20;18.17;;;-3.00;99.90;;;;;;20833297;28;20029;-82
2023/02/11 01:29:42;;;;;;;36.40;16.90;;;-3.00;99.90;;;;;;20831007;28;20072;-79
2023/02/11 01:39:43;;;;;;;51.95;21.05;;;-3.20;99.90;;;;;;20831407;28;20045;-81
2023/02/11 01:49:57;;;;;;;56.25;22.30;;;-3.20;99.90;;;;;;20813417;28;20061;-84
2023/02/11 02:00:08;;;;;;;42.83;18.70;;;-3.30;99.90;;;;;;20811498;28;20038;-82
2023/02/11 02:10:19;;;;;;;44.95;18.00;;;-3.20;99.90;;;;;;20850642;28;20025;-82
2023/02/11 02:20:41;;;;;;;45.25;18.48;;;-3.20;99.90;;;;;;20842536;28;20034;-79
2023/02/11 02:30:51;;;;;;;52.08;20.45;;;-3.20;99.90;;;;;;20840765;28;20130;-82
2023/02/11 02:41:22;;;;;;;59.30;24.00;;;-3.10;99.90;;;;;;20839580;28;20037;-84
2023/02/11 02:51:26;;;;;;;;;;;-3.10;99.90;;;;;;20838269;28;20042;-80
2023/02/11 03:01:59;;;;;;;59.35;23.10;;;-3.00;99.90;;;;;;20839016;28;19913;-81
2023/02/11 03:12:02;;;;;;;63.00;24.80;;;-2.70;99.90;;;;;;20830213;28;20100;-79
2023/02/11 03:22:07;;;;;;;61.53;23.52;;;-2.60;99.90;;;;;;20837305;28;20033;-82
2023/02/11 03:32:30;;;;;;;64.10;22.73;;;-2.80;99.90;;;;;;20835950;28;20040;-81
2023/02/11 03:42:37;;;;;;;68.95;26.35;;;-3.00;99.90;;;;;;20837360;28;20041;-81
2023/02/11 03:52:38;;;;;;;62.05;23.88;;;-3.20;99.90;;;;;;20835959;28;20045;-80
2023/02/11 04:02:40;;;;;;;55.70;21.55;;;-3.10;99.90;;;;;;20818317;28;20041;-84
2023/02/11 04:12:41;;;;;;;60.30;23.45;;;-3.00;99.90;;;;;;20835686;28;20037;-81
2023/02/11 04:22:42;;;;;;;61.45;22.75;;;-3.00;99.90;;;;;;20834239;28;20075;-82
2023/02/11 04:32:43;;;;;;;47.25;19.98;;;-3.00;99.90;;;;;;20832649;28;20030;-83
2023/02/11 04:42:43;;;;;;;40.63;16.38;;;-2.90;99.90;;;;;;20832857;28;20032;-81
2023/02/11 04:52:44;;;;;;;51.75;22.67;;;-3.30;99.90;;;;;;20833378;28;20504;-83
2023/02/11 05:02:45;;;;;;;52.50;21.20;;;-3.30;99.90;;;;;;20835036;28;20025;-82
2023/02/11 05:12:48;;;;;;;57.03;21.55;;;-3.50;99.90;;;;;;20815276;28;20037;-81
2023/02/11 05:22:48;;;;;;;40.05;17.45;;;-3.50;99.90;;;;;;20829355;28;20037;-79
2023/02/11 05:32:49;;;;;;;49.63;21.08;;;-3.40;99.90;;;;;;20832129;28;20082;-81
2023/02/11 05:42:50;;;;;;;53.22;21.40;;;-3.10;99.90;;;;;;20835093;28;20390;-83
2023/02/11 05:52:51;;;;;;;64.65;23.42;;;-3.30;99.90;;;;;;20846486;28;20029;-83
2023/02/11 06:02:52;;;;;;;58.63;24.70;;;-3.50;99.90;;;;;;20845810;28;20111;-80
2023/02/11 06:12:53;;;;;;;64.43;27.10;;;-3.30;99.90;;;;;;20845077;28;20463;-81
2023/02/11 06:22:53;;;;;;;52.85;21.98;;;-3.10;99.90;;;;;;20829739;22;20515;-79
2023/02/11 06:32:54;;;;;;;54.05;21.63;;;-3.00;99.90;;;;;;20772500;28;20094;-79
2023/02/11 06:42:55;;;;;;;60.13;23.90;;;-3.10;99.90;;;;;;20772494;28;20022;-78
2023/02/11 06:52:58;;;;;;;62.50;25.70;;;-3.20;99.90;;;;;;20753463;28;20048;-77
2023/02/11 07:02:59;;;;;;;55.97;23.08;;;-3.10;99.90;;;;;;20742318;28;20022;-78
2023/02/11 07:13:00;;;;;;;46.72;20.63;;;-3.00;99.90;;;;;;20751279;28;20094;-79
2023/02/11 07:23:01;;;;;;;41.83;18.63;;;-2.60;99.90;;;;;;20784238;28;20030;-78
2023/02/11 07:33:01;;;;;;;51.78;21.10;;;-2.30;99.90;;;;;;20764231;28;20441;-80
2023/02/11 07:43:02;;;;;;;44.15;19.90;;;-1.40;99.90;;;;;;20758032;28;20539;-78
2023/02/11 07:53:03;;;;;;;43.45;19.00;;;-1.20;99.90;;;;;;20754843;28;20034;-78
2023/02/11 08:03:04;;;;;;;43.33;18.60;;;-0.70;99.90;;;;;;20752196;28;20447;-78
2023/02/11 08:13:04;;;;;;;45.80;19.10;;;0.50;99.90;;;;;;20722519;28;20029;-79
2023/02/11 08:23:06;;;;;;;38.42;18.40;;;1.00;99.90;;;;;;20745526;28;20056;-78
2023/02/11 08:33:07;;;;;;;36.83;17.38;;;1.60;99.90;;;;;;20749412;28;20045;-78
2023/02/11 08:43:08;;;;;;;42.38;18.42;;;2.30;99.90;;;;;;20749865;28;20034;-78
2023/02/11 08:53:09;;;;;;;52.38;21.25;;;1.10;99.90;;;;;;20823965;28;20522;-77
2023/02/11 09:03:11;;;;;;;40.65;16.02;;;0.10;99.90;;;;;;20756652;28;20026;-77
2023/02/11 09:13:12;;;;;;;38.67;18.40;;;2.10;99.90;;;;;;20750212;28;20034;-77
2023/02/11 09:23:12;;;;;;;37.70;17.80;;;3.40;99.90;;;;;;20821605;28;20068;-78
2023/02/11 09:33:13;;;;;;;44.50;19.23;;;3.80;99.90;;;;;;20725142;28;20045;-77
2023/02/11 09:43:21;;;;;;;46.13;20.30;;;2.20;99.90;;;;;;20744528;28;20105;-77
2023/02/11 09:53:34;;;;;;;51.58;23.10;;;1.30;99.90;;;;;;20730745;28;20572;-76
2023/02/11 10:03:54;;;;;;;59.10;23.42;;;1.10;99.90;;;;;;20742362;28;20392;-76
2023/02/11 10:14:48;;;;;;;57.40;24.42;;;1.20;99.90;;;;;;20727233;28;20065;-77
2023/02/11 10:24:53;;;;;;;52.53;24.75;;;1.40;99.90;;;;;;20719614;28;20046;-78
2023/02/11 10:35:00;;;;;;;48.08;22.98;;;3.20;99.90;;;;;;20746540;28;20025;-78
2023/02/11 10:45:06;;;;;;;54.25;24.38;;;3.90;99.90;;;;;;20765454;28;20095;-78
2023/02/11 10:55:15;;;;;;;48.55;23.42;;;4.40;99.90;;;;;;20808674;28;20446;-78
2023/02/11 11:05:38;;;;;;;50.38;23.73;;;6.20;99.90;;;;;;20822046;28;20056;-78
2023/02/11 11:15:39;;;;;;;46.70;22.70;;;7.40;99.90;;;;;;20797105;28;20140;-78
2023/02/11 11:25:44;;;;;;;41.10;22.23;;;9.50;99.90;;;;;;20837139;28;20539;-78
2023/02/11 11:36:06;;;;;;;39.30;20.58;;;10.90;99.90;;;;;;20836788;28;20033;-78
2023/02/11 11:46:11;;;;;;;37.83;20.67;;;10.50;99.90;;;;;;20835698;28;20033;-78
2023/02/11 11:56:21;;;;;;;42.42;21.75;;;11.80;99.90;;;;;;20815233;28;20124;-78
2023/02/11 12:06:54;;;;;;;40.42;20.23;;;11.10;99.90;;;;;;20814519;28;20079;-78
2023/02/11 12:17:25;;;;;;;37.28;18.05;;;10.20;99.90;;;;;;20692589;28;20041;-77
2023/02/11 12:27:49;;;;;;;39.65;18.30;;;10.80;99.90;;;;;;20983506;23;20090;-79
2023/02/11 12:38:21;;;;;;;35.58;17.92;;;11.80;99.90;;;;;;20920979;28;20025;-79
2023/02/11 12:48:27;;;;;;;40.57;19.33;;;11.30;98.70;;;;;;20886221;28;20429;-79
2023/02/11 12:58:32;;;;;;;40.60;19.55;;;12.20;99.30;;;;;;20890763;28;20076;-79
2023/02/11 13:08:39;;;;;;;29.92;13.65;;;11.90;98.60;;;;;;20919237;28;20025;-79
2023/02/11 13:19:17;;;;;;;32.70;16.85;;;11.30;95.90;;;;;;20878588;28;20044;-79
2023/02/11 13:29:26;;;;;;;37.20;15.25;;;11.80;96.10;;;;;;20835902;28;20029;-79
2023/02/11 13:39:27;;;;;;;38.75;17.42;;;12.10;95.50;;;;;;20833293;28;20037;-80
2023/02/11 13:49:39;;;;;;;36.97;16.60;;;11.50;95.90;;;;;;20831711;28;20044;-77
2023/02/11 13:59:40;;;;;;;47.08;16.88;;;11.60;96.80;;;;;;20830967;28;20034;-78
2023/02/11 14:09:40;;;;;;;42.70;16.27;;;11.70;96.30;;;;;;20838925;28;20562;-78
2023/02/11 14:19:45;;;;;;;30.17;14.37;;;12.20;96.20;;;;;;20841857;28;20087;-79
2023/02/11 14:30:13;;;;;;;33.47;14.73;;;11.70;95.50;;;;;;20846233;28;20476;-78
2023/02/11 14:40:32;;;;;;;35.70;15.88;;;11.70;95.30;;;;;;20845738;28;20033;-78
2023/02/11 14:50:48;;;;;;;35.00;14.38;;;11.60;95.00;;;;;;20845266;28;20036;-79
2023/02/11 15:00:55;;;;;;;32.22;14.23;;;11.70;95.00;;;;;;20851050;28;20026;-78
2023/02/11 15:10:59;;;;;;;37.20;14.55;;;11.70;94.70;;;;;;20868702;28;20044;-78
2023/02/11 15:21:00;;;;;;;36.00;15.68;;;11.20;94.70;;;;;;20834521;28;20030;-78
2023/02/11 15:31:13;;;;;;;41.17;16.83;;;12.50;94.70;;;;;;20816758;28;20032;-78
2023/02/11 15:41:34;;;;;;;46.65;23.30;;;11.80;94.80;;;;;;20845306;28;20029;-78
2023/02/11 15:51:37;;;;;;;42.47;17.43;;;12.50;95.40;;;;;;20811683;28;20044;-79
2023/02/11 16:01:38;;;;;;;37.03;16.98;;;11.60;97.20;;;;;;20832341;28;20026;-78
2023/02/11 16:11:45;;;;;;;37.05;17.42;;;11.80;97.90;;;;;;20906015;28;20438;-79
2023/02/11 16:21:47;;;;;;;42.60;17.88;;;9.40;99.90;;;;;;20852192;28;20029;-78
2023/02/11 16:31:49;;;;;;;44.25;18.58;;;8.00;99.90;;;;;;20888706;28;20029;-79
2023/02/11 16:41:50;;;;;;;;;;;7.40;99.90;;;;;;20855622;28;20557;-79
2023/02/11 16:51:55;;;;;;;41.40;17.77;;;6.90;99.90;;;;;;20847797;28;20414;-78
2023/02/11 17:01:56;;;;;;;37.72;16.90;;;6.00;99.90;;;;;;20865438;28;20084;-79
2023/02/11 17:11:57;;;;;;;46.28;18.10;;;5.50;99.90;;;;;;20867693;28;20030;-78
2023/02/11 17:21:58;;;;;;;;;;;4.60;99.90;;;;;;20820991;28;20508;-78
2023/02/11 17:31:59;;;;;;;64.22;22.15;;;4.00;99.90;;;;;;20827909;28;19913;-78
2023/02/11 17:42:00;;;;;;;40.92;15.57;;;3.20;99.90;;;;;;20842092;28;20029;-78
2023/02/11 17:52:01;;;;;;;36.22;15.27;;;2.90;99.90;;;;;;20811263;28;20041;-77
2023/02/11 18:02:03;;;;;;;39.58;14.45;;;3.00;99.90;;;;;;20920245;28;20029;-79
2023/02/11 18:12:04;;;;;;;47.72;16.00;;;1.80;99.90;;;;;;20935451;28;20090;-79
2023/02/11 18:22:05;;;;;;;37.65;15.88;;;1.70;99.90;;;;;;20934219;22;20069;-80
2023/02/11 18:32:06;;;;;;;43.50;19.17;;;2.00;99.90;;;;;;20862993;28;20029;-79
2023/02/11 18:42:08;;;;;;;52.08;18.48;;;1.60;99.90;;;;;;20862078;28;20032;-80
2023/02/11 18:52:08;;;;;;;45.10;20.20;;;1.40;99.90;;;;;;20866813;28;20117;-80
2023/02/11 19:02:10;;;;;;;45.78;19.48;;;1.00;99.90;;;;;;20829748;28;20045;-80
2023/02/11 19:12:11;;;;;;;47.58;18.85;;;1.10;99.90;;;;;;20844790;28;20401;-81
2023/02/11 19:22:11;;;;;;;49.47;18.98;;;1.10;99.90;;;;;;20861367;28;20053;-81
2023/02/11 19:32:14;;;;;;;38.75;14.98;;;0.80;99.90;;;;;;20843378;28;20034;-81
2023/02/11 19:42:15;;;;;;;38.60;14.77;;;0.90;99.90;;;;;;20837049;28;20092;-80
2023/02/11 19:52:16;;;;;;;44.55;16.05;;;0.90;99.90;;;;;;20816589;28;20033;-82
2023/02/11 20:02:17;;;;;;;40.80;16.88;;;0.60;99.90;;;;;;20814353;28;20123;-80
2023/02/11 20:12:18;;;;;;;38.25;15.38;;;0.00;99.90;;;;;;20831794;28;20035;-80
2023/02/11 20:22:19;;;;;;;44.72;17.17;;;0.40;99.90;;;;;;20836489;28;20029;-81
2023/02/11 20:32:20;;;;;;;39.42;16.45;;;0.20;99.90;;;;;;20814385;28;20406;-80
2023/02/11 20:42:20;;;;;;;38.60;15.35;;;0.20;99.90;;;;;;20829497;28;20109;-80
2023/02/11 20:52:21;;;;;;;44.85;17.25;;;-0.10;99.90;;;;;;20830616;28;20025;-81
2023/02/11 21:02:22;;;;;;;47.88;18.25;;;-0.20;99.90;;;;;;20826883;28;20103;-81
2023/02/11 21:12:23;;;;;;;49.65;20.25;;;-0.40;99.90;;;;;;20809676;28;20052;-81
2023/02/11 21:22:24;;;;;;;43.75;16.48;;;-0.30;99.90;;;;;;20824037;28;20037;-80
2023/02/11 21:32:24;;;;;;;53.08;20.08;;;0.00;99.90;;;;;;20827066;28;20061;-81
2023/02/11 21:42:25;;;;;;;53.67;20.48;;;-0.40;99.90;;;;;;20806724;28;20346;-80
2023/02/11 21:52:26;;;;;;;46.97;19.02;;;-0.40;99.90;;;;;;20824238;28;20044;-80
2023/02/11 22:02:27;;;;;;;50.50;19.08;;;-0.50;99.90;;;;;;20829230;28;20045;-80
2023/02/11 22:12:28;;;;;;;45.25;18.15;;;-0.50;99.90;;;;;;20830923;28;20036;-80
2023/02/11 22:22:28;;;;;;;43.90;16.92;;;-0.70;99.90;;;;;;20833611;28;20041;-78
2023/02/11 22:32:29;;;;;;;41.58;16.17;;;-0.90;99.90;;;;;;20845155;28;20044;-79
2023/02/11 22:42:30;;;;;;;42.15;15.40;;;-0.90;99.90;;;;;;20842675;28;20497;-79
2023/02/11 22:52:33;;;;;;;35.58;13.77;;;-0.80;99.90;;;;;;20846524;28;20022;-79
2023/02/11 23:02:34;;;;;;;28.00;13.40;;;-1.00;99.90;;;;;;20827381;28;20555;-79
2023/02/11 23:12:35;;;;;;;41.30;15.90;;;-1.00;99.90;;;;;;20843146;28;20128;-80
2023/02/11 23:22:35;;;;;;;35.55;15.00;;;-1.20;99.90;;;;;;20841904;28;20044;-78
2023/02/11 23:32:39;;;;;;;40.67;14.50;;;-1.20;99.90;;;;;;20845979;28;20116;-80
2023/02/11 23:42:40;;;;;;;40.28;16.85;;;-1.90;99.90;;;;;;20843545;28;20045;-80
2023/02/11 23:52:41;;;;;;;43.42;18.02;;;-1.30;99.90;;;;;;20841498;28;20036;-79
